createdAt,value
2022-08-21T00:00:01.717Z,13.88
2022-08-21T00:01:01.712Z,13.92
2022-08-21T00:02:01.820Z,13.91
2022-08-21T00:03:01.664Z,13.95
2022-08-21T00:04:01.638Z,13.84
2022-08-21T00:05:01.619Z,13.94
2022-08-21T00:06:01.621Z,13.88
2022-08-21T00:07:01.570Z,13.83
2022-08-21T00:08:01.566Z,13.79
2022-08-21T00:09:06.080Z,13.80
2022-08-21T00:10:01.597Z,13.67
2022-08-21T00:11:01.487Z,13.69
2022-08-21T00:12:01.470Z,13.69
2022-08-21T00:13:01.455Z,13.61
2022-08-21T00:14:01.553Z,13.55
2022-08-21T00:15:09.033Z,13.55
2022-08-21T00:16:02.311Z,13.59
2022-08-21T00:18:41.968Z,13.43
2022-08-21T00:19:41.929Z,13.43
2022-08-21T00:20:41.909Z,13.51
2022-08-21T00:21:44.492Z,13.47
2022-08-21T00:22:41.873Z,13.49
2022-08-21T00:23:41.849Z,13.44
2022-08-21T00:24:41.825Z,13.44
2022-08-21T00:25:48.942Z,13.52
2022-08-21T00:27:35.164Z,13.49
2022-08-21T00:28:35.128Z,13.51
2022-08-21T00:29:35.103Z,13.47
2022-08-21T00:30:35.093Z,13.55
2022-08-21T00:31:35.068Z,13.47
2022-08-21T00:32:35.062Z,13.49
2022-08-21T00:33:35.022Z,13.51
2022-08-21T00:34:35.288Z,13.52
2022-08-21T00:35:42.116Z,13.47
2022-08-21T00:37:27.838Z,13.38
2022-08-21T00:38:27.809Z,13.44
2022-08-21T00:39:27.773Z,13.40
2022-08-21T00:40:27.752Z,13.41
2022-08-21T00:41:37.324Z,13.41
2022-08-21T00:42:27.705Z,13.38
2022-08-21T00:43:27.688Z,13.41
2022-08-21T00:44:27.663Z,13.32
2022-08-21T00:45:27.651Z,13.27
2022-08-21T00:46:28.444Z,13.38
2022-08-21T00:47:27.610Z,13.32
2022-08-21T00:48:27.576Z,13.41
2022-08-21T00:49:27.559Z,13.43
2022-08-21T00:50:27.533Z,13.47
2022-08-21T00:51:27.516Z,13.41
2022-08-21T00:52:27.490Z,13.44
2022-08-21T00:53:27.472Z,13.43
2022-08-21T00:54:27.447Z,13.41
2022-08-21T00:55:27.432Z,13.32
2022-08-21T00:56:27.411Z,13.36
2022-08-21T00:57:27.387Z,13.36
2022-08-21T00:58:27.363Z,13.30
2022-08-21T00:59:27.347Z,13.38
2022-08-21T01:00:27.325Z,13.27
2022-08-21T01:01:27.367Z,13.21
2022-08-21T01:02:27.281Z,13.22
2022-08-21T01:03:27.259Z,13.24
2022-08-21T01:04:27.251Z,13.12
2022-08-21T01:05:27.222Z,13.18
2022-08-21T01:06:27.206Z,13.22
2022-08-21T01:07:27.695Z,13.15
2022-08-21T01:08:27.180Z,13.14
2022-08-21T01:09:27.130Z,13.06
2022-08-21T01:10:27.101Z,13.06
2022-08-21T01:11:27.087Z,13.06
2022-08-21T01:12:27.060Z,13.04
2022-08-21T01:13:27.037Z,13.06
2022-08-21T01:14:27.019Z,12.99
2022-08-21T01:15:26.996Z,13.03
2022-08-21T01:16:26.970Z,13.04
2022-08-21T01:17:26.965Z,12.99
2022-08-21T01:18:26.931Z,12.97
2022-08-21T01:19:26.910Z,13.06
2022-08-21T01:20:32.890Z,13.03
2022-08-21T01:21:28.072Z,13.09
2022-08-21T01:22:26.846Z,13.02
2022-08-21T01:23:26.826Z,13.02
2022-08-21T01:24:26.802Z,12.99
2022-08-21T01:25:26.869Z,13.00
2022-08-21T01:26:34.458Z,12.87
2022-08-21T01:27:26.779Z,12.85
2022-08-21T01:28:26.721Z,12.82
2022-08-21T01:29:26.694Z,12.85
2022-08-21T01:30:26.674Z,12.88
2022-08-21T01:31:26.650Z,12.81
2022-08-21T01:32:26.630Z,12.85
2022-08-21T01:33:26.610Z,12.85
2022-08-21T01:34:26.582Z,12.89
2022-08-21T01:35:26.579Z,12.84
2022-08-21T01:36:26.546Z,12.81
2022-08-21T01:37:26.522Z,12.84
2022-08-21T01:38:26.497Z,12.85
2022-08-21T01:39:26.482Z,12.84
2022-08-21T01:40:26.452Z,12.82
2022-08-21T01:41:26.432Z,12.88
2022-08-21T01:42:26.421Z,12.88
2022-08-21T01:43:30.668Z,12.85
2022-08-21T01:44:26.365Z,12.87
2022-08-21T01:45:26.344Z,12.81
2022-08-21T01:46:26.325Z,12.79
2022-08-21T01:47:26.301Z,12.78
2022-08-21T01:48:26.277Z,12.78
2022-08-21T01:49:26.260Z,12.71
2022-08-21T01:50:26.240Z,12.77
2022-08-21T01:51:26.214Z,12.77
2022-08-21T01:52:26.191Z,12.75
2022-08-21T01:53:28.685Z,12.75
2022-08-21T01:54:26.148Z,12.63
2022-08-21T01:55:26.129Z,12.77
2022-08-21T01:56:26.103Z,12.71
2022-08-21T01:57:26.499Z,12.71
2022-08-21T01:58:26.061Z,12.81
2022-08-21T01:59:26.041Z,12.81
2022-08-21T02:00:26.025Z,12.77
2022-08-21T02:01:26.029Z,12.74
2022-08-21T02:02:27.248Z,12.75
2022-08-21T02:03:31.275Z,12.74
2022-08-21T02:04:25.929Z,12.67
2022-08-21T02:05:25.912Z,12.77
2022-08-21T02:06:25.902Z,12.77
2022-08-21T02:07:25.867Z,12.78
2022-08-21T02:08:25.843Z,12.74
2022-08-21T02:09:25.819Z,12.81
2022-08-21T02:10:25.798Z,12.67
2022-08-21T02:11:25.786Z,12.70
2022-08-21T02:12:25.771Z,12.70
2022-08-21T02:13:25.741Z,12.71
2022-08-21T02:14:31.929Z,12.63
2022-08-21T02:15:25.689Z,12.66
2022-08-21T02:16:25.666Z,12.71
2022-08-21T02:17:25.644Z,12.70
2022-08-21T02:18:25.623Z,12.66
2022-08-21T02:19:25.622Z,12.67
2022-08-21T02:20:25.579Z,12.62
2022-08-21T02:21:25.563Z,12.64
2022-08-21T02:22:25.539Z,12.64
2022-08-21T02:23:27.439Z,12.67
2022-08-21T02:24:25.495Z,12.77
2022-08-21T02:25:25.468Z,12.71
2022-08-21T02:26:25.449Z,12.74
2022-08-21T02:27:26.639Z,12.67
2022-08-21T02:28:25.404Z,12.63
2022-08-21T02:29:25.439Z,12.56
2022-08-21T02:30:25.360Z,12.56
2022-08-21T02:31:25.336Z,12.56
2022-08-21T02:32:25.319Z,12.51
2022-08-21T02:33:25.297Z,12.48
2022-08-21T02:34:29.384Z,12.46
2022-08-21T02:35:25.255Z,12.57
2022-08-21T02:36:25.226Z,12.49
2022-08-21T02:37:25.216Z,12.60
2022-08-21T02:38:25.200Z,12.62
2022-08-21T02:39:26.918Z,12.74
2022-08-21T02:40:25.143Z,12.81
2022-08-21T02:41:25.136Z,12.69
2022-08-21T02:42:25.095Z,12.70
2022-08-21T02:43:25.075Z,12.67
2022-08-21T02:44:30.104Z,12.64
2022-08-21T02:45:25.035Z,12.63
2022-08-21T02:46:25.007Z,12.64
2022-08-21T02:47:24.997Z,12.54
2022-08-21T02:48:24.965Z,12.49
2022-08-21T02:49:25.017Z,12.49
2022-08-21T02:50:24.922Z,12.54
2022-08-21T02:51:24.903Z,12.42
2022-08-21T02:52:24.876Z,12.42
2022-08-21T02:53:24.865Z,12.48
2022-08-21T02:54:24.830Z,12.41
2022-08-21T02:55:24.814Z,12.45
2022-08-21T02:56:24.793Z,12.48
2022-08-21T02:57:24.768Z,12.31
2022-08-21T02:58:24.754Z,12.24
2022-08-21T02:59:24.724Z,12.24
2022-08-21T03:00:24.697Z,12.37
2022-08-21T03:01:24.720Z,12.26
2022-08-21T03:02:26.656Z,12.33
2022-08-21T03:03:24.634Z,12.16
2022-08-21T03:04:24.613Z,12.19
2022-08-21T03:05:24.594Z,12.30
2022-08-21T03:06:24.569Z,12.33
2022-08-21T03:07:24.550Z,12.37
2022-08-21T03:08:26.511Z,12.41
2022-08-21T03:09:24.505Z,12.41
2022-08-21T03:10:24.481Z,12.42
2022-08-21T03:11:24.468Z,12.46
2022-08-21T03:12:24.436Z,12.42
2022-08-21T03:13:24.426Z,12.34
2022-08-21T03:14:24.398Z,12.27
2022-08-21T03:15:24.372Z,12.29
2022-08-21T03:16:24.350Z,12.33
2022-08-21T03:17:29.794Z,12.26
2022-08-21T03:18:24.306Z,12.26
2022-08-21T03:19:24.285Z,12.13
2022-08-21T03:20:24.262Z,12.20
2022-08-21T03:21:24.238Z,12.19
2022-08-21T03:22:24.218Z,12.16
2022-08-21T03:23:24.203Z,12.15
2022-08-21T03:24:24.172Z,12.15
2022-08-21T03:25:40.068Z,12.15
2022-08-21T03:26:24.148Z,12.12
2022-08-21T03:27:24.110Z,12.15
2022-08-21T03:28:24.084Z,12.12
2022-08-21T03:29:24.059Z,12.15
2022-08-21T03:30:24.041Z,12.12
2022-08-21T03:31:24.020Z,12.13
2022-08-21T03:32:23.994Z,12.21
2022-08-21T03:33:23.973Z,12.19
2022-08-21T03:34:23.951Z,12.23
2022-08-21T03:35:23.929Z,12.23
2022-08-21T03:36:23.909Z,12.23
2022-08-21T03:37:23.890Z,12.27
2022-08-21T03:38:26.647Z,12.33
2022-08-21T03:39:23.841Z,12.31
2022-08-21T03:40:23.821Z,12.41
2022-08-21T03:41:23.815Z,12.37
2022-08-21T03:42:23.773Z,12.29
2022-08-21T03:43:23.749Z,12.30
2022-08-21T03:44:23.731Z,12.33
2022-08-21T03:45:23.707Z,12.30
2022-08-21T03:46:23.692Z,12.29
2022-08-21T03:47:23.666Z,12.24
2022-08-21T03:48:23.642Z,12.16
2022-08-21T03:49:23.632Z,12.13
2022-08-21T03:50:23.601Z,12.21
2022-08-21T03:51:23.572Z,12.16
2022-08-21T03:52:23.559Z,12.15
2022-08-21T03:53:23.540Z,12.19
2022-08-21T03:54:23.514Z,12.19
2022-08-21T03:55:23.491Z,12.21
2022-08-21T03:56:23.465Z,12.15
2022-08-21T03:57:23.454Z,12.16
2022-08-21T03:58:23.418Z,12.09
2022-08-21T03:59:23.395Z,12.16
2022-08-21T04:00:23.375Z,12.20
2022-08-21T04:01:23.387Z,12.04
2022-08-21T04:02:23.333Z,12.01
2022-08-21T04:03:23.308Z,12.09
2022-08-21T04:04:23.283Z,12.06
2022-08-21T04:05:23.262Z,12.04
2022-08-21T04:06:23.244Z,12.02
2022-08-21T04:07:23.216Z,12.09
2022-08-21T04:08:23.203Z,12.04
2022-08-21T04:09:23.180Z,12.08
2022-08-21T04:10:23.164Z,12.06
2022-08-21T04:11:23.133Z,12.05
2022-08-21T04:12:23.105Z,12.04
2022-08-21T04:13:23.090Z,12.05
2022-08-21T04:14:23.078Z,12.05
2022-08-21T04:15:23.045Z,12.04
2022-08-21T04:16:23.021Z,12.19
2022-08-21T04:17:22.999Z,12.12
2022-08-21T04:18:22.971Z,12.13
2022-08-21T04:19:22.961Z,12.13
2022-08-21T04:20:22.936Z,12.13
2022-08-21T04:21:24.236Z,12.11
2022-08-21T04:22:22.886Z,12.16
2022-08-21T04:23:24.433Z,12.12
2022-08-21T04:24:22.838Z,12.16
2022-08-21T04:25:22.817Z,12.11
2022-08-21T04:26:22.802Z,12.19
2022-08-21T04:27:22.774Z,12.11
2022-08-21T04:28:23.394Z,12.12
2022-08-21T04:29:22.732Z,12.13
2022-08-21T04:30:28.064Z,12.19
2022-08-21T04:31:22.704Z,12.12
2022-08-21T04:32:22.668Z,12.08
2022-08-21T04:33:22.645Z,12.09
2022-08-21T04:34:22.634Z,12.21
2022-08-21T04:35:22.608Z,12.15
2022-08-21T04:36:22.986Z,12.08
2022-08-21T04:37:22.554Z,12.13
2022-08-21T04:38:22.534Z,12.11
2022-08-21T04:39:22.507Z,12.09
2022-08-21T04:40:22.592Z,12.11
2022-08-21T04:41:28.061Z,12.15
2022-08-21T04:42:22.441Z,12.04
2022-08-21T04:43:22.437Z,12.04
2022-08-21T04:44:22.405Z,12.09
2022-08-21T04:45:22.376Z,12.04
2022-08-21T04:46:22.360Z,12.05
2022-08-21T04:47:22.334Z,12.11
2022-08-21T04:48:22.305Z,12.20
2022-08-21T04:49:22.286Z,12.19
2022-08-21T04:50:22.260Z,12.16
2022-08-21T04:51:22.244Z,12.26
2022-08-21T04:52:22.216Z,12.15
2022-08-21T04:53:22.205Z,12.19
2022-08-21T04:54:22.175Z,12.11
2022-08-21T04:55:22.171Z,12.16
2022-08-21T04:56:22.130Z,12.19
2022-08-21T04:57:22.103Z,12.24
2022-08-21T04:58:22.086Z,12.24
2022-08-21T04:59:22.070Z,12.27
2022-08-21T05:00:22.037Z,12.29
2022-08-21T05:01:22.087Z,12.42
2022-08-21T05:02:21.997Z,12.34
2022-08-21T05:03:21.971Z,12.45
2022-08-21T05:04:21.956Z,12.31
2022-08-21T05:05:21.930Z,12.42
2022-08-21T05:06:21.907Z,12.41
2022-08-21T05:07:42.483Z,12.45
2022-08-21T05:08:21.869Z,12.48
2022-08-21T05:09:21.842Z,12.54
2022-08-21T05:10:21.908Z,12.57
2022-08-21T05:11:21.799Z,12.64
2022-08-21T05:12:21.775Z,12.59
2022-08-21T05:13:21.754Z,12.75
2022-08-21T05:14:21.735Z,12.67
2022-08-21T05:15:21.710Z,12.70
2022-08-21T05:16:30.151Z,12.75
2022-08-21T05:17:21.663Z,12.77
2022-08-21T05:18:21.643Z,12.74
2022-08-21T05:19:21.621Z,12.71
2022-08-21T05:20:21.614Z,12.81
2022-08-21T05:21:21.576Z,12.78
2022-08-21T05:22:21.555Z,12.82
2022-08-21T05:23:21.531Z,12.81
2022-08-21T05:24:21.516Z,12.95
2022-08-21T05:25:22.267Z,12.95
2022-08-21T05:26:21.467Z,13.00
2022-08-21T05:27:21.451Z,13.02
2022-08-21T05:28:21.427Z,13.04
2022-08-21T05:29:21.404Z,13.12
2022-08-21T05:30:21.440Z,13.21
2022-08-21T05:31:21.362Z,13.17
2022-08-21T05:32:21.333Z,13.27
2022-08-21T05:33:21.312Z,13.24
2022-08-21T05:34:21.299Z,13.29
2022-08-21T05:35:21.276Z,13.27
2022-08-21T05:36:21.248Z,13.36
2022-08-21T05:37:21.229Z,13.37
2022-08-21T05:38:21.223Z,13.44
2022-08-21T05:39:21.189Z,13.49
2022-08-21T05:40:23.372Z,13.51
2022-08-21T05:41:21.149Z,13.56
2022-08-21T05:42:21.123Z,13.56
2022-08-21T05:43:21.097Z,13.62
2022-08-21T05:44:21.082Z,13.73
2022-08-21T05:45:34.661Z,13.73
2022-08-21T05:46:21.039Z,13.79
2022-08-21T05:47:21.014Z,13.91
2022-08-21T05:48:20.989Z,13.99
2022-08-21T05:49:20.977Z,14.02
2022-08-21T05:50:20.947Z,14.04
2022-08-21T05:51:20.941Z,14.07
2022-08-21T05:52:20.907Z,14.19
2022-08-21T05:53:20.885Z,14.28
2022-08-21T05:54:20.867Z,14.31
2022-08-21T05:55:20.844Z,14.44
2022-08-21T05:56:20.825Z,14.43
2022-08-21T05:57:20.805Z,14.54
2022-08-21T05:58:20.783Z,14.53
2022-08-21T05:59:20.762Z,14.62
2022-08-21T06:00:20.740Z,14.68
2022-08-21T06:01:20.754Z,14.65
2022-08-21T06:02:20.703Z,14.83
2022-08-21T06:03:20.673Z,14.84
2022-08-21T06:04:20.659Z,14.88
2022-08-21T06:05:24.985Z,14.98
2022-08-21T06:06:20.612Z,15.03
2022-08-21T06:07:20.596Z,15.06
2022-08-21T06:08:20.578Z,15.09
2022-08-21T06:09:20.550Z,15.09
2022-08-21T06:10:20.545Z,15.17
2022-08-21T06:11:20.917Z,15.17
2022-08-21T06:12:20.492Z,15.15
2022-08-21T06:13:20.465Z,15.21
2022-08-21T06:14:20.460Z,15.31
2022-08-21T06:15:20.452Z,15.42
2022-08-21T06:16:20.411Z,15.41
2022-08-21T06:17:20.389Z,15.51
2022-08-21T06:18:20.370Z,15.52
2022-08-21T06:19:20.360Z,15.63
2022-08-21T06:20:20.330Z,15.61
2022-08-21T06:21:20.316Z,15.74
2022-08-21T06:22:20.289Z,15.64
2022-08-21T06:23:20.269Z,15.89
2022-08-21T06:24:20.250Z,15.97
2022-08-21T06:25:20.232Z,16.06
2022-08-21T06:26:20.212Z,16.00
2022-08-21T06:27:23.504Z,16.09
2022-08-21T06:28:20.178Z,16.20
2022-08-21T06:29:20.151Z,16.23
2022-08-21T06:30:20.131Z,16.33
2022-08-21T06:31:20.126Z,16.40
2022-08-21T06:32:20.094Z,16.35
2022-08-21T06:33:20.068Z,16.34
2022-08-21T06:34:20.057Z,16.33
2022-08-21T06:35:20.037Z,16.42
2022-08-21T06:36:20.019Z,16.50
2022-08-21T06:37:20.081Z,16.48
2022-08-21T06:38:19.977Z,16.62
2022-08-21T06:39:24.991Z,16.75
2022-08-21T06:40:20.058Z,16.85
2022-08-21T06:41:23.913Z,16.89
2022-08-21T06:42:19.898Z,17.08
2022-08-21T06:43:19.893Z,17.10
2022-08-21T06:44:19.863Z,17.15
2022-08-21T06:45:19.846Z,17.26
2022-08-21T06:46:19.824Z,17.29
2022-08-21T06:47:19.804Z,17.33
2022-08-21T06:48:19.783Z,17.50
2022-08-21T06:49:21.559Z,17.53
2022-08-21T06:50:19.748Z,17.67
2022-08-21T06:51:19.727Z,17.74
2022-08-21T06:52:19.709Z,17.85
2022-08-21T06:53:19.692Z,17.85
2022-08-21T06:54:19.706Z,18.00
2022-08-21T06:55:22.261Z,18.03
2022-08-21T06:56:19.638Z,18.19
2022-08-21T06:57:19.619Z,18.25
2022-08-21T06:58:19.600Z,18.24
2022-08-21T06:59:19.585Z,18.29
2022-08-21T07:00:19.563Z,18.36
2022-08-21T07:01:19.584Z,18.61
2022-08-21T07:02:19.525Z,18.76
2022-08-21T07:03:19.515Z,18.82
2022-08-21T07:04:19.495Z,18.94
2022-08-21T07:05:19.479Z,19.01
2022-08-21T07:06:19.454Z,19.28
2022-08-21T07:07:19.441Z,19.55
2022-08-21T07:08:19.423Z,19.66
2022-08-21T07:09:23.953Z,19.73
2022-08-21T07:10:22.498Z,19.72
2022-08-21T07:11:19.386Z,19.80
2022-08-21T07:12:19.351Z,19.95
2022-08-21T07:13:19.331Z,20.15
2022-08-21T07:14:20.288Z,20.25
2022-08-21T07:15:19.303Z,20.33
2022-08-21T07:16:19.284Z,20.51
2022-08-21T07:17:19.268Z,20.79
2022-08-21T07:18:19.250Z,20.95
2022-08-21T07:19:19.234Z,21.24
2022-08-21T07:20:19.218Z,21.36
2022-08-21T07:21:23.891Z,21.46
2022-08-21T07:22:19.182Z,21.59
2022-08-21T07:23:19.170Z,21.79
2022-08-21T07:24:19.182Z,22.04
2022-08-21T07:25:19.136Z,22.09
2022-08-21T07:26:19.120Z,22.41
2022-08-21T07:27:19.103Z,22.65
2022-08-21T07:28:19.101Z,22.99
2022-08-21T07:29:19.080Z,23.11
2022-08-21T07:30:19.062Z,23.31
2022-08-21T07:31:19.047Z,23.58
2022-08-21T07:32:21.402Z,23.82
2022-08-21T07:33:19.026Z,23.97
2022-08-21T07:34:19.004Z,24.32
2022-08-21T07:35:19.022Z,24.31
2022-08-21T07:36:18.977Z,24.60
2022-08-21T07:37:18.964Z,24.41
2022-08-21T07:38:18.962Z,24.79
2022-08-21T07:39:18.934Z,24.95
2022-08-21T07:40:18.998Z,25.25
2022-08-21T07:41:18.906Z,25.62
2022-08-21T07:42:18.902Z,25.89
2022-08-21T07:43:18.899Z,25.90
2022-08-21T07:44:18.877Z,25.97
2022-08-21T07:45:18.854Z,25.64
2022-08-21T07:46:18.843Z,25.46
2022-08-21T07:47:41.334Z,25.32
2022-08-21T07:48:18.809Z,25.72
2022-08-21T07:49:18.803Z,26.08
2022-08-21T07:50:18.789Z,26.18
2022-08-21T07:51:18.773Z,26.36
2022-08-21T07:52:18.759Z,26.54
2022-08-21T07:53:18.746Z,26.76
2022-08-21T07:54:18.742Z,26.50
2022-08-21T07:55:18.727Z,25.90
2022-08-21T07:56:18.711Z,25.43
2022-08-21T07:57:18.792Z,25.28
2022-08-21T07:58:18.683Z,25.25
2022-08-21T07:59:18.673Z,25.34
2022-08-21T08:00:18.661Z,25.37
2022-08-21T08:01:18.706Z,25.31
2022-08-21T08:02:18.636Z,25.32
2022-08-21T08:03:28.360Z,25.32
2022-08-21T08:04:20.419Z,25.19
2022-08-21T08:05:18.608Z,25.28
2022-08-21T08:06:18.591Z,25.42
2022-08-21T08:07:18.596Z,25.43
2022-08-21T08:08:18.563Z,25.50
2022-08-21T08:09:18.552Z,25.34
2022-08-21T08:10:18.541Z,25.43
2022-08-21T08:11:18.530Z,25.57
2022-08-21T08:12:18.516Z,25.79
2022-08-21T08:13:18.513Z,25.79
2022-08-21T08:14:18.519Z,26.24
2022-08-21T08:15:18.482Z,26.67
2022-08-21T08:16:18.474Z,27.02
2022-08-21T08:17:18.460Z,27.05
2022-08-21T08:18:18.447Z,27.36
2022-08-21T08:19:18.436Z,27.11
2022-08-21T08:20:18.429Z,27.47
2022-08-21T08:21:18.445Z,27.91
2022-08-21T08:22:18.409Z,28.01
2022-08-21T08:23:18.398Z,28.19
2022-08-21T08:24:19.404Z,28.22
2022-08-21T08:25:18.372Z,27.48
2022-08-21T08:26:18.364Z,26.74
2022-08-21T08:27:18.352Z,26.86
2022-08-21T08:28:18.339Z,27.54
2022-08-21T08:29:18.340Z,28.29
2022-08-21T08:30:18.319Z,28.53
2022-08-21T08:31:18.308Z,28.70
2022-08-21T08:32:18.297Z,29.29
2022-08-21T08:33:18.293Z,29.47
2022-08-21T08:34:23.490Z,29.68
2022-08-21T08:35:18.265Z,29.86
2022-08-21T08:36:18.254Z,29.50
2022-08-21T08:37:18.264Z,29.82
2022-08-21T08:38:18.236Z,29.31
2022-08-21T08:39:26.507Z,29.10
2022-08-21T08:40:18.260Z,28.96
2022-08-21T08:41:18.198Z,28.93
2022-08-21T08:42:32.943Z,29.04
2022-08-21T08:43:18.185Z,29.43
2022-08-21T08:44:18.179Z,29.19
2022-08-21T08:45:18.163Z,29.43
2022-08-21T08:46:18.152Z,29.63
2022-08-21T08:47:18.141Z,29.66
2022-08-21T08:48:18.143Z,29.37
2022-08-21T08:49:18.119Z,29.71
2022-08-21T08:50:18.207Z,29.94
2022-08-21T08:51:18.167Z,30.21
2022-08-21T08:52:18.090Z,30.21
2022-08-21T08:53:18.085Z,30.34
2022-08-21T08:54:18.071Z,30.21
2022-08-21T08:55:18.062Z,30.21
2022-08-21T08:56:18.049Z,29.75
2022-08-21T08:57:18.039Z,30.08
2022-08-21T08:58:18.027Z,30.30
2022-08-21T08:59:18.015Z,30.09
2022-08-21T09:00:18.057Z,30.24
2022-08-21T09:01:18.099Z,30.12
2022-08-21T09:02:17.992Z,29.26
2022-08-21T09:03:17.978Z,28.96
2022-08-21T09:04:17.965Z,29.33
2022-08-21T09:05:17.956Z,29.10
2022-08-21T09:06:17.951Z,28.33
2022-08-21T09:07:17.935Z,27.91
2022-08-21T09:08:19.001Z,28.26
2022-08-21T09:09:17.923Z,28.58
2022-08-21T09:10:17.990Z,28.95
2022-08-21T09:11:17.903Z,29.59
2022-08-21T09:12:17.893Z,29.72
2022-08-21T09:13:17.882Z,29.59
2022-08-21T09:14:17.870Z,29.26
2022-08-21T09:15:17.860Z,28.87
2022-08-21T09:16:17.851Z,28.60
2022-08-21T09:17:17.837Z,29.00
2022-08-21T09:18:17.852Z,29.35
2022-08-21T09:19:17.828Z,29.72
2022-08-21T09:20:17.830Z,29.72
2022-08-21T09:21:17.808Z,29.41
2022-08-21T09:22:17.823Z,29.19
2022-08-21T09:23:17.783Z,29.10
2022-08-21T09:24:17.801Z,29.20
2022-08-21T09:25:17.763Z,29.29
2022-08-21T09:26:17.752Z,29.34
2022-08-21T09:27:17.745Z,29.63
2022-08-21T09:28:17.729Z,29.75
2022-08-21T09:29:17.715Z,29.72
2022-08-21T09:30:17.714Z,29.56
2022-08-21T09:31:17.703Z,29.26
2022-08-21T09:32:18.733Z,29.26
2022-08-21T09:33:17.679Z,28.85
2022-08-21T09:34:17.672Z,28.82
2022-08-21T09:35:17.669Z,28.93
2022-08-21T09:36:17.647Z,28.44
2022-08-21T09:37:17.642Z,28.28
2022-08-21T09:38:17.627Z,28.68
2022-08-21T09:39:17.615Z,28.54
2022-08-21T09:40:17.746Z,29.11
2022-08-21T09:41:17.601Z,29.33
2022-08-21T09:42:17.588Z,29.44
2022-08-21T09:43:17.580Z,29.35
2022-08-21T09:44:17.576Z,29.62
2022-08-21T09:45:17.554Z,29.29
2022-08-21T09:46:17.554Z,28.84
2022-08-21T09:47:17.536Z,28.90
2022-08-21T09:48:17.529Z,29.11
2022-08-21T09:49:17.527Z,29.50
2022-08-21T09:50:17.511Z,29.90
2022-08-21T09:51:17.503Z,30.23
2022-08-21T09:52:17.499Z,30.54
2022-08-21T09:53:17.484Z,30.71
2022-08-21T09:54:17.466Z,30.69
2022-08-21T09:55:17.463Z,30.94
2022-08-21T09:56:17.462Z,31.01
2022-08-21T09:57:17.441Z,30.37
2022-08-21T09:58:17.433Z,29.63
2022-08-21T09:59:17.420Z,29.08
2022-08-21T10:00:17.410Z,29.31
2022-08-21T10:01:17.543Z,29.81
2022-08-21T10:02:17.396Z,30.02
2022-08-21T10:03:17.386Z,30.11
2022-08-21T10:04:17.388Z,29.90
2022-08-21T10:05:17.394Z,29.19
2022-08-21T10:06:17.358Z,28.69
2022-08-21T10:07:17.356Z,28.96
2022-08-21T10:08:17.347Z,29.23
2022-08-21T10:09:21.125Z,29.53
2022-08-21T10:10:17.322Z,30.03
2022-08-21T10:11:17.345Z,30.08
2022-08-21T10:12:17.309Z,29.89
2022-08-21T10:13:17.295Z,30.40
2022-08-21T10:14:17.297Z,30.26
2022-08-21T10:15:17.277Z,30.53
2022-08-21T10:16:17.268Z,29.92
2022-08-21T10:17:17.262Z,29.71
2022-08-21T10:18:17.285Z,29.57
2022-08-21T10:19:17.250Z,29.33
2022-08-21T10:20:17.233Z,28.70
2022-08-21T10:21:17.231Z,28.63
2022-08-21T10:22:17.220Z,28.10
2022-08-21T10:23:17.211Z,28.32
2022-08-21T10:24:23.631Z,28.80
2022-08-21T10:25:17.199Z,29.35
2022-08-21T10:26:17.190Z,29.28
2022-08-21T10:27:17.182Z,28.87
2022-08-21T10:28:17.169Z,28.63
2022-08-21T10:29:17.163Z,28.09
2022-08-21T10:30:17.164Z,27.84
2022-08-21T10:31:17.154Z,27.46
2022-08-21T10:32:25.814Z,27.09
2022-08-21T10:33:17.128Z,26.61
2022-08-21T10:34:17.119Z,26.36
2022-08-21T10:35:17.126Z,26.42
2022-08-21T10:36:17.101Z,26.28
2022-08-21T10:37:17.102Z,26.24
2022-08-21T10:38:39.254Z,26.22
2022-08-21T10:39:26.475Z,26.28
2022-08-21T10:40:17.148Z,26.96
2022-08-21T10:41:17.056Z,27.54
2022-08-21T10:42:17.049Z,28.43
2022-08-21T10:43:17.050Z,28.38
2022-08-21T10:44:17.032Z,28.65
2022-08-21T10:45:17.023Z,28.73
2022-08-21T10:46:17.015Z,29.04
2022-08-21T10:47:17.009Z,29.44
2022-08-21T10:48:17.003Z,29.74
2022-08-21T10:49:16.986Z,29.60
2022-08-21T10:50:16.977Z,29.63
2022-08-21T10:51:16.980Z,29.41
2022-08-21T10:52:16.964Z,29.56
2022-08-21T10:53:16.961Z,29.25
2022-08-21T10:54:21.467Z,29.16
2022-08-21T10:55:16.941Z,28.97
2022-08-21T10:56:16.941Z,28.51
2022-08-21T10:57:16.929Z,28.03
2022-08-21T10:58:16.925Z,28.03
2022-08-21T10:59:16.919Z,27.71
2022-08-21T11:00:16.908Z,27.28
2022-08-21T11:01:16.954Z,27.26
2022-08-21T11:02:16.894Z,27.84
2022-08-21T11:03:16.890Z,28.62
2022-08-21T11:04:16.877Z,29.19
2022-08-21T11:05:16.870Z,29.62
2022-08-21T11:06:17.123Z,29.16
2022-08-21T11:07:17.655Z,28.81
2022-08-21T11:08:16.847Z,28.23
2022-08-21T11:09:16.852Z,27.74
2022-08-21T11:10:16.836Z,27.14
2022-08-21T11:11:21.608Z,26.68
2022-08-21T11:12:16.820Z,26.36
2022-08-21T11:13:16.816Z,26.22
2022-08-21T11:14:16.801Z,26.74
2022-08-21T11:15:29.514Z,27.46
2022-08-21T11:16:16.795Z,27.98
2022-08-21T11:17:21.415Z,28.25
2022-08-21T11:18:16.772Z,28.48
2022-08-21T11:19:16.766Z,28.73
2022-08-21T11:20:16.756Z,29.19
2022-08-21T11:21:16.756Z,29.38
2022-08-21T11:22:16.755Z,29.16
2022-08-21T11:23:16.735Z,29.00
2022-08-21T11:24:16.727Z,29.18
2022-08-21T11:25:16.719Z,29.06
2022-08-21T11:26:16.715Z,28.81
2022-08-21T11:27:16.709Z,28.23
2022-08-21T11:28:16.712Z,28.63
2022-08-21T11:29:16.694Z,29.04
2022-08-21T11:30:16.689Z,29.35
2022-08-21T11:31:16.703Z,29.63
2022-08-21T11:32:16.678Z,30.08
2022-08-21T11:33:16.679Z,30.43
2022-08-21T11:34:16.673Z,30.37
2022-08-21T11:35:16.663Z,29.59
2022-08-21T11:36:16.660Z,29.72
2022-08-21T11:37:16.657Z,30.07
2022-08-21T11:38:16.664Z,30.52
2022-08-21T11:39:16.642Z,30.57
2022-08-21T11:40:16.706Z,30.81
2022-08-21T11:41:16.629Z,31.01
2022-08-21T11:42:16.638Z,30.53
2022-08-21T11:43:16.626Z,29.52
2022-08-21T11:44:16.619Z,28.53
2022-08-21T11:45:16.617Z,28.22
2022-08-21T11:46:16.612Z,27.96
2022-08-21T11:47:16.613Z,28.13
2022-08-21T11:48:16.600Z,28.54
2022-08-21T11:49:16.611Z,28.54
2022-08-21T11:50:34.871Z,28.84
2022-08-21T11:51:16.590Z,29.01
2022-08-21T11:52:16.577Z,29.01
2022-08-21T11:53:16.564Z,29.11
2022-08-21T11:54:16.569Z,29.40
2022-08-21T11:55:16.564Z,29.57
2022-08-21T11:56:16.557Z,29.96
2022-08-21T11:57:16.553Z,30.08
2022-08-21T11:58:16.553Z,30.52
2022-08-21T11:59:16.556Z,30.74
2022-08-21T12:00:16.539Z,30.96
2022-08-21T12:01:16.538Z,30.83
2022-08-21T12:02:16.619Z,30.45
2022-08-21T12:03:16.545Z,30.16
2022-08-21T12:04:16.547Z,29.82
2022-08-21T12:05:16.529Z,30.00
2022-08-21T12:06:24.061Z,30.24
2022-08-21T12:07:16.539Z,30.49
2022-08-21T12:08:16.524Z,30.43
2022-08-21T12:09:16.514Z,30.31
2022-08-21T12:10:16.507Z,30.36
2022-08-21T12:11:16.510Z,30.53
2022-08-21T12:12:16.500Z,30.64
2022-08-21T12:13:16.499Z,30.53
2022-08-21T12:14:16.508Z,30.53
2022-08-21T12:15:16.497Z,30.52
2022-08-21T12:16:16.492Z,30.78
2022-08-21T12:17:20.221Z,30.96
2022-08-21T12:18:16.508Z,31.21
2022-08-21T12:19:16.486Z,31.08
2022-08-21T12:20:16.483Z,30.87
2022-08-21T12:21:16.480Z,30.69
2022-08-21T12:22:16.481Z,30.71
2022-08-21T12:23:16.479Z,30.83
2022-08-21T12:24:16.474Z,30.84
2022-08-21T12:25:20.955Z,30.84
2022-08-21T12:26:16.473Z,30.67
2022-08-21T12:27:16.471Z,30.34
2022-08-21T12:28:16.470Z,30.14
2022-08-21T12:29:16.468Z,30.12
2022-08-21T12:30:16.467Z,30.05
2022-08-21T12:31:16.465Z,29.90
2022-08-21T12:32:16.463Z,29.89
2022-08-21T12:33:16.465Z,30.00
2022-08-21T12:34:16.463Z,29.97
2022-08-21T12:35:25.275Z,29.92
2022-08-21T12:36:16.462Z,29.45
2022-08-21T12:37:16.449Z,29.37
2022-08-21T12:38:16.479Z,29.56
2022-08-21T12:39:16.448Z,29.68
2022-08-21T12:40:16.517Z,30.12
2022-08-21T12:41:17.817Z,30.33
2022-08-21T12:42:16.443Z,30.62
2022-08-21T12:43:16.438Z,30.81
2022-08-21T12:44:16.452Z,30.68
2022-08-21T12:45:16.442Z,30.43
2022-08-21T12:46:16.436Z,30.40
2022-08-21T12:47:16.432Z,30.43
2022-08-21T12:48:16.499Z,30.54
2022-08-21T12:49:16.427Z,30.34
2022-08-21T12:50:16.427Z,30.19
2022-08-21T12:51:16.444Z,30.11
2022-08-21T12:52:16.426Z,30.21
2022-08-21T12:53:20.166Z,30.34
2022-08-21T12:54:16.417Z,30.40
2022-08-21T12:55:16.423Z,30.52